sensor_id;sensor_type;location;lat;lon;timestamp;pressure;altitude;pressure_sealevel;temperature;humidity
75447;BME280;64024;55.820;37.574;2022-11-15T00:01:46;99449.06;;;12.81;41.38
75447;BME280;64024;55.820;37.574;2022-11-15T00:04:11;99453.59;;;12.81;41.50
75447;BME280;64024;55.820;37.574;2022-11-15T00:06:37;99451.16;;;12.79;41.50
75447;BME280;64024;55.820;37.574;2022-11-15T00:09:03;99443.16;;;12.79;41.51
75447;BME280;64024;55.820;37.574;2022-11-15T00:11:28;99453.00;;;12.79;41.66
75447;BME280;64024;55.820;37.574;2022-11-15T00:13:55;99449.28;;;12.80;41.64
75447;BME280;64024;55.820;37.574;2022-11-15T00:16:21;99446.84;;;12.78;41.74
75447;BME280;64024;55.820;37.574;2022-11-15T00:18:46;99443.16;;;12.79;41.74
75447;BME280;64024;55.820;37.574;2022-11-15T00:21:15;99430.84;;;12.78;41.62
75447;BME280;64024;55.820;37.574;2022-11-15T00:23:41;99438.63;;;12.80;41.68
75447;BME280;64024;55.820;37.574;2022-11-15T00:26:11;99437.81;;;12.79;41.67
75447;BME280;64024;55.820;37.574;2022-11-15T00:28:37;99428.78;;;12.80;42.13
75447;BME280;64024;55.820;37.574;2022-11-15T00:31:05;99427.72;;;12.81;41.81
75447;BME280;64024;55.820;37.574;2022-11-15T00:33:36;99432.06;;;12.82;42.01
75447;BME280;64024;55.820;37.574;2022-11-15T00:36:06;99408.84;;;12.83;41.68
75447;BME280;64024;55.820;37.574;2022-11-15T00:38:35;99429.16;;;12.84;41.72
75447;BME280;64024;55.820;37.574;2022-11-15T00:41:02;99423.41;;;12.87;41.65
75447;BME280;64024;55.820;37.574;2022-11-15T00:43:28;99426.06;;;12.87;41.56
75447;BME280;64024;55.820;37.574;2022-11-15T00:45:54;99414.78;;;12.85;41.68
75447;BME280;64024;55.820;37.574;2022-11-15T00:48:20;99411.53;;;12.83;41.53
75447;BME280;64024;55.820;37.574;2022-11-15T00:50:46;99413.59;;;12.81;41.27
75447;BME280;64024;55.820;37.574;2022-11-15T00:53:11;99405.81;;;12.79;41.28
75447;BME280;64024;55.820;37.574;2022-11-15T00:55:37;99400.69;;;12.78;41.15
75447;BME280;64024;55.820;37.574;2022-11-15T00:58:02;99398.03;;;12.78;41.49
75447;BME280;64024;55.820;37.574;2022-11-15T01:00:28;99399.06;;;12.77;41.03
75447;BME280;64024;55.820;37.574;2022-11-15T01:02:53;99407.28;;;12.75;41.42
75447;BME280;64024;55.820;37.574;2022-11-15T01:05:19;99402.19;;;12.74;41.08
75447;BME280;64024;55.820;37.574;2022-11-15T01:07:45;99396.03;;;12.73;41.38
75447;BME280;64024;55.820;37.574;2022-11-15T01:10:11;99400.75;;;12.71;41.17
75447;BME280;64024;55.820;37.574;2022-11-15T01:12:37;99398.09;;;12.71;41.28
75447;BME280;64024;55.820;37.574;2022-11-15T01:15:03;99385.78;;;12.70;41.11
75447;BME280;64024;55.820;37.574;2022-11-15T01:17:30;99389.50;;;12.69;41.08
75447;BME280;64024;55.820;37.574;2022-11-15T01:19:56;99386.84;;;12.69;41.11
75447;BME280;64024;55.820;37.574;2022-11-15T01:22:21;99384.38;;;12.67;40.96
75447;BME280;64024;55.820;37.574;2022-11-15T01:24:47;99378.22;;;12.67;41.17
75447;BME280;64024;55.820;37.574;2022-11-15T01:27:14;99376.59;;;12.66;40.95
75447;BME280;64024;55.820;37.574;2022-11-15T01:29:39;99371.03;;;12.67;41.01
75447;BME280;64024;55.820;37.574;2022-11-15T01:32:05;99368.38;;;12.67;41.11
75447;BME280;64024;55.820;37.574;2022-11-15T01:34:30;99363.84;;;12.68;40.81
75447;BME280;64024;55.820;37.574;2022-11-15T01:36:56;99371.84;;;12.68;41.11
75447;BME280;64024;55.820;37.574;2022-11-15T01:39:21;99375.31;;;12.68;41.02
75447;BME280;64024;55.820;37.574;2022-11-15T01:41:47;99372.88;;;12.67;40.84
75447;BME280;64024;55.820;37.574;2022-11-15T01:46:57;99367.56;;;12.67;40.67
75447;BME280;64024;55.820;37.574;2022-11-15T01:49:24;99373.94;;;12.66;40.88
75447;BME280;64024;55.820;37.574;2022-11-15T01:51:53;99367.78;;;12.65;40.64
75447;BME280;64024;55.820;37.574;2022-11-15T01:54:21;99367.16;;;12.63;40.93
75447;BME280;64024;55.820;37.574;2022-11-15T01:56:56;99362.06;;;12.62;40.91
75447;BME280;64024;55.820;37.574;2022-11-15T01:59:24;99365.53;;;12.62;40.79
75447;BME280;64024;55.820;37.574;2022-11-15T02:01:50;99370.88;;;12.62;40.83
75447;BME280;64024;55.820;37.574;2022-11-15T02:04:18;99371.31;;;12.59;40.79
75447;BME280;64024;55.820;37.574;2022-11-15T02:06:46;99362.50;;;12.59;40.97
75447;BME280;64024;55.820;37.574;2022-11-15T02:09:13;99360.88;;;12.58;40.90
75447;BME280;64024;55.820;37.574;2022-11-15T02:11:39;99360.06;;;12.57;40.72
75447;BME280;64024;55.820;37.574;2022-11-15T02:14:07;99364.56;;;12.57;40.80
75447;BME280;64024;55.820;37.574;2022-11-15T02:29:11;99347.38;;;12.53;40.92
75447;BME280;64024;55.820;37.574;2022-11-15T02:31:51;99351.28;;;12.50;40.73
75447;BME280;64024;55.820;37.574;2022-11-15T02:34:32;99348.84;;;12.49;41.04
75447;BME280;64024;55.820;37.574;2022-11-15T02:37:16;99358.47;;;12.50;40.77
75447;BME280;64024;55.820;37.574;2022-11-15T02:40:14;99356.00;;;12.48;40.56
75447;BME280;64024;55.820;37.574;2022-11-15T02:42:53;99350.91;;;12.47;40.84
75447;BME280;64024;55.820;37.574;2022-11-15T02:46:09;99344.16;;;12.44;40.67
75447;BME280;64024;55.820;37.574;2022-11-15T02:48:37;99346.22;;;12.42;40.67
75447;BME280;64024;55.820;37.574;2022-11-15T02:51:04;99331.47;;;12.39;40.78
75447;BME280;64024;55.820;37.574;2022-11-15T02:53:29;99338.66;;;12.39;40.62
75447;BME280;64024;55.820;37.574;2022-11-15T02:55:56;99335.19;;;12.38;40.67
75447;BME280;64024;55.820;37.574;2022-11-15T03:11:18;99325.56;;;12.37;41.83
75447;BME280;64024;55.820;37.574;2022-11-15T03:16:28;99312.00;;;12.39;43.68
75447;BME280;64024;55.820;37.574;2022-11-15T03:19:10;99312.63;;;12.41;44.32
75447;BME280;64024;55.820;37.574;2022-11-15T03:21:39;99309.94;;;12.41;44.48
75447;BME280;64024;55.820;37.574;2022-11-15T03:24:06;99320.63;;;12.41;44.30
75447;BME280;64024;55.820;37.574;2022-11-15T03:26:34;99318.75;;;12.41;44.71
75447;BME280;64024;55.820;37.574;2022-11-15T03:29:06;99312.63;;;12.41;44.63
75447;BME280;64024;55.820;37.574;2022-11-15T03:31:36;99319.56;;;12.42;44.36
75447;BME280;64024;55.820;37.574;2022-11-15T03:34:26;99311.56;;;12.42;44.55
75447;BME280;64024;55.820;37.574;2022-11-15T03:36:52;99319.56;;;12.42;44.32
75447;BME280;64024;55.820;37.574;2022-11-15T03:39:19;99315.28;;;12.41;43.98
75447;BME280;64024;55.820;37.574;2022-11-15T03:41:47;99318.53;;;12.43;44.18
75447;BME280;64024;55.820;37.574;2022-11-15T03:44:40;99317.50;;;12.44;44.19
75447;BME280;64024;55.820;37.574;2022-11-15T03:47:17;99313.00;;;12.44;44.08
75447;BME280;64024;55.820;37.574;2022-11-15T03:49:51;99317.50;;;12.44;44.39
75447;BME280;64024;55.820;37.574;2022-11-15T03:52:19;99318.34;;;12.44;44.35
75447;BME280;64024;55.820;37.574;2022-11-15T03:54:56;99314.63;;;12.46;44.16
75447;BME280;64024;55.820;37.574;2022-11-15T03:57:22;99311.97;;;12.46;44.09
75447;BME280;64024;55.820;37.574;2022-11-15T03:59:47;99312.16;;;12.44;44.35
75447;BME280;64024;55.820;37.574;2022-11-15T04:02:13;99311.97;;;12.46;44.12
75447;BME280;64024;55.820;37.574;2022-11-15T04:04:39;99307.66;;;12.44;43.89
75447;BME280;64024;55.820;37.574;2022-11-15T04:07:05;99304.16;;;12.44;43.82
75447;BME280;64024;55.820;37.574;2022-11-15T04:09:30;99299.69;;;12.44;43.85
75447;BME280;64024;55.820;37.574;2022-11-15T04:11:56;99303.34;;;12.43;43.73
75447;BME280;64024;55.820;37.574;2022-11-15T04:14:21;99299.88;;;12.43;43.64
75447;BME280;64024;55.820;37.574;2022-11-15T04:16:47;99301.50;;;12.44;43.69
75447;BME280;64024;55.820;37.574;2022-11-15T04:19:14;99303.88;;;12.52;43.63
75447;BME280;64024;55.820;37.574;2022-11-15T04:21:58;99300.03;;;12.48;43.42
75447;BME280;64024;55.820;37.574;2022-11-15T04:24:42;99303.16;;;12.45;43.38
75447;BME280;64024;55.820;37.574;2022-11-15T04:27:08;99297.00;;;12.44;43.35
75447;BME280;64024;55.820;37.574;2022-11-15T04:29:33;99300.91;;;12.42;42.86
75447;BME280;64024;55.820;37.574;2022-11-15T04:31:59;99296.41;;;12.42;43.20
75447;BME280;64024;55.820;37.574;2022-11-15T04:34:25;99294.53;;;12.43;43.64
75447;BME280;64024;55.820;37.574;2022-11-15T04:36:50;99296.41;;;12.42;43.88
75447;BME280;64024;55.820;37.574;2022-11-15T04:39:34;99292.91;;;12.42;43.59
75447;BME280;64024;55.820;37.574;2022-11-15T04:42:00;99292.91;;;12.42;43.55
75447;BME280;64024;55.820;37.574;2022-11-15T04:44:25;99294.53;;;12.43;43.56
75447;BME280;64024;55.820;37.574;2022-11-15T04:46:51;99287.34;;;12.43;43.51
75447;BME280;64024;55.820;37.574;2022-11-15T04:49:16;99275.88;;;12.43;43.50
75447;BME280;64024;55.820;37.574;2022-11-15T04:51:42;99274.66;;;12.46;43.22
75447;BME280;64024;55.820;37.574;2022-11-15T04:54:07;99272.78;;;12.46;43.35
75447;BME280;64024;55.820;37.574;2022-11-15T04:56:33;99274.41;;;12.47;43.24
75447;BME280;64024;55.820;37.574;2022-11-15T04:58:58;99271.56;;;12.49;43.07
75447;BME280;64024;55.820;37.574;2022-11-15T05:01:24;99274.22;;;12.49;43.07
75447;BME280;64024;55.820;37.574;2022-11-15T05:03:49;99275.84;;;12.50;43.15
75447;BME280;64024;55.820;37.574;2022-11-15T05:06:33;99272.13;;;12.51;43.06
75447;BME280;64024;55.820;37.574;2022-11-15T05:08:59;99281.75;;;12.52;42.94
75447;BME280;64024;55.820;37.574;2022-11-15T05:11:25;99274.78;;;12.51;43.02
75447;BME280;64024;55.820;37.574;2022-11-15T05:13:52;99273.75;;;12.52;42.86
75447;BME280;64024;55.820;37.574;2022-11-15T05:16:18;99271.91;;;12.52;42.82
75447;BME280;64024;55.820;37.574;2022-11-15T05:18:46;99279.91;;;12.52;42.83
75447;BME280;64024;55.820;37.574;2022-11-15T05:21:14;99270.06;;;12.53;42.68
75447;BME280;64024;55.820;37.574;2022-11-15T05:23:40;99273.31;;;12.55;42.77
75447;BME280;64024;55.820;37.574;2022-11-15T05:26:07;99262.44;;;12.56;43.06
75447;BME280;64024;55.820;37.574;2022-11-15T05:28:33;99260.38;;;12.58;43.35
75447;BME280;64024;55.820;37.574;2022-11-15T05:31:06;99260.75;;;12.62;43.79
75447;BME280;64024;55.820;37.574;2022-11-15T05:33:34;99251.47;;;12.64;44.24
75447;BME280;64024;55.820;37.574;2022-11-15T05:36:14;99250.84;;;12.69;45.35
75447;BME280;64024;55.820;37.574;2022-11-15T05:38:43;99255.72;;;12.72;45.71
75447;BME280;64024;55.820;37.574;2022-11-15T05:41:09;99253.84;;;12.73;46.02
75447;BME280;64024;55.820;37.574;2022-11-15T05:43:37;99255.28;;;12.75;46.16
75447;BME280;64024;55.820;37.574;2022-11-15T05:46:04;99256.69;;;12.78;46.29
75447;BME280;64024;55.820;37.574;2022-11-15T05:48:31;99258.91;;;12.81;46.11
75447;BME280;64024;55.820;37.574;2022-11-15T05:50:58;99248.03;;;12.82;45.87
75447;BME280;64024;55.820;37.574;2022-11-15T05:53:24;99243.50;;;12.83;45.78
75447;BME280;64024;55.820;37.574;2022-11-15T05:55:51;99239.34;;;12.87;45.45
75447;BME280;64024;55.820;37.574;2022-11-15T05:58:18;99251.41;;;12.89;45.41
75447;BME280;64024;55.820;37.574;2022-11-15T06:00:44;99241.34;;;12.91;45.14
75447;BME280;64024;55.820;37.574;2022-11-15T06:03:09;99241.13;;;12.93;45.01
75447;BME280;64024;55.820;37.574;2022-11-15T06:05:35;99247.06;;;12.95;44.94
75447;BME280;64024;55.820;37.574;2022-11-15T06:08:01;99243.94;;;12.98;44.78
75447;BME280;64024;55.820;37.574;2022-11-15T06:10:26;99230.38;;;13.00;44.73
75447;BME280;64024;55.820;37.574;2022-11-15T06:12:59;99229.94;;;13.03;44.26
75447;BME280;64024;55.820;37.574;2022-11-15T06:15:25;99229.13;;;13.02;44.25
75447;BME280;64024;55.820;37.574;2022-11-15T06:17:51;99231.31;;;13.05;44.09
75447;BME280;64024;55.820;37.574;2022-11-15T06:20:17;99227.66;;;13.06;44.12
75447;BME280;64024;55.820;37.574;2022-11-15T06:22:43;99231.94;;;13.07;43.97
75447;BME280;64024;55.820;37.574;2022-11-15T06:25:08;99230.06;;;13.08;43.77
75447;BME280;64024;55.820;37.574;2022-11-15T06:27:34;99226.38;;;13.09;43.75
75447;BME280;64024;55.820;37.574;2022-11-15T06:29:59;99221.03;;;13.09;43.31
75447;BME280;64024;55.820;37.574;2022-11-15T06:32:25;99218.59;;;13.07;43.43
75447;BME280;64024;55.820;37.574;2022-11-15T06:34:50;99226.38;;;13.09;43.49
75447;BME280;64024;55.820;37.574;2022-11-15T06:37:16;99219.16;;;13.09;43.54
75447;BME280;64024;55.820;37.574;2022-11-15T06:39:41;99202.13;;;13.10;43.52
75447;BME280;64024;55.820;37.574;2022-11-15T06:42:08;99202.13;;;13.10;43.01
75447;BME280;64024;55.820;37.574;2022-11-15T06:44:34;99195.75;;;13.11;43.06
75447;BME280;64024;55.820;37.574;2022-11-15T06:46:59;99210.97;;;13.11;42.76
75447;BME280;64024;55.820;37.574;2022-11-15T06:49:25;99207.25;;;12.93;42.29
75447;BME280;64024;55.820;37.574;2022-11-15T06:51:50;99203.66;;;12.69;41.70
75447;BME280;64024;55.820;37.574;2022-11-15T06:54:16;99205.13;;;12.47;41.34
75447;BME280;64024;55.820;37.574;2022-11-15T06:56:41;99201.03;;;12.26;40.90
75447;BME280;64024;55.820;37.574;2022-11-15T06:59:07;99201.41;;;12.05;40.91
75447;BME280;64024;55.820;37.574;2022-11-15T07:01:32;99182.13;;;11.84;40.62
75447;BME280;64024;55.820;37.574;2022-11-15T07:03:58;99180.53;;;11.77;40.86
75447;BME280;64024;55.820;37.574;2022-11-15T07:06:23;99175.56;;;11.80;41.31
75447;BME280;64024;55.820;37.574;2022-11-15T07:08:49;99172.25;;;11.91;41.39
75447;BME280;64024;55.820;37.574;2022-11-15T07:11:14;99167.41;;;12.07;41.49
75447;BME280;64024;55.820;37.574;2022-11-15T07:13:40;99164.81;;;12.18;41.30
75447;BME280;64024;55.820;37.574;2022-11-15T07:16:07;99165.72;;;12.31;41.32
75447;BME280;64024;55.820;37.574;2022-11-15T07:18:37;99157.94;;;12.48;41.24
75447;BME280;64024;55.820;37.574;2022-11-15T07:21:05;99169.28;;;12.61;41.31
75447;BME280;64024;55.820;37.574;2022-11-15T07:23:31;99153.38;;;12.73;41.34
75447;BME280;64024;55.820;37.574;2022-11-15T07:25:57;99149.47;;;12.87;41.21
75447;BME280;64024;55.820;37.574;2022-11-15T07:28:24;99154.06;;;12.99;41.27
75447;BME280;64024;55.820;37.574;2022-11-15T07:30:49;99151.41;;;13.10;41.49
75447;BME280;64024;55.820;37.574;2022-11-15T07:33:15;99149.03;;;13.21;41.15
75447;BME280;64024;55.820;37.574;2022-11-15T07:35:40;99140.06;;;13.33;41.13
75447;BME280;64024;55.820;37.574;2022-11-15T07:38:08;99128.00;;;13.42;41.22
75447;BME280;64024;55.820;37.574;2022-11-15T07:40:33;99131.16;;;13.51;41.01
75447;BME280;64024;55.820;37.574;2022-11-15T07:43:06;99143.59;;;13.57;40.38
75447;BME280;64024;55.820;37.574;2022-11-15T07:45:32;99147.16;;;13.51;39.82
75447;BME280;64024;55.820;37.574;2022-11-15T07:48:01;99141.78;;;13.39;39.08
75447;BME280;64024;55.820;37.574;2022-11-15T07:50:27;99122.06;;;13.29;39.08
75447;BME280;64024;55.820;37.574;2022-11-15T07:52:59;99124.28;;;13.32;39.67
75447;BME280;64024;55.820;37.574;2022-11-15T07:55:26;99128.81;;;13.43;40.17
75447;BME280;64024;55.820;37.574;2022-11-15T07:57:52;99125.63;;;13.64;40.57
75447;BME280;64024;55.820;37.574;2022-11-15T08:00:17;99121.22;;;13.82;40.26
75447;BME280;64024;55.820;37.574;2022-11-15T08:02:43;99128.06;;;13.89;40.48
75447;BME280;64024;55.820;37.574;2022-11-15T08:05:08;99127.72;;;13.98;40.66
75447;BME280;64024;55.820;37.574;2022-11-15T08:07:34;99124.47;;;14.07;40.44
75447;BME280;64024;55.820;37.574;2022-11-15T08:10:00;99123.28;;;14.15;40.55
75447;BME280;64024;55.820;37.574;2022-11-15T08:12:27;99121.06;;;14.24;40.79
75447;BME280;64024;55.820;37.574;2022-11-15T08:14:54;99111.88;;;14.31;40.56
75447;BME280;64024;55.820;37.574;2022-11-15T08:17:21;99115.81;;;14.40;40.68
75447;BME280;64024;55.820;37.574;2022-11-15T08:19:47;99114.16;;;14.51;40.44
75447;BME280;64024;55.820;37.574;2022-11-15T08:22:13;99112.53;;;14.62;40.50
75447;BME280;64024;55.820;37.574;2022-11-15T08:24:39;99105.53;;;14.73;40.34
75447;BME280;64024;55.820;37.574;2022-11-15T08:27:05;99100.94;;;14.85;40.27
75447;BME280;64024;55.820;37.574;2022-11-15T08:29:30;99097.16;;;14.98;40.13
75447;BME280;64024;55.820;37.574;2022-11-15T08:31:56;99097.34;;;15.08;40.19
75447;BME280;64024;55.820;37.574;2022-11-15T08:34:21;99093.47;;;15.15;40.30
75447;BME280;64024;55.820;37.574;2022-11-15T08:36:47;99092.47;;;15.22;40.52
75447;BME280;64024;55.820;37.574;2022-11-15T08:42:10;99082.63;;;15.39;40.32
75447;BME280;64024;55.820;37.574;2022-11-15T08:44:35;99087.00;;;15.45;39.91
75447;BME280;64024;55.820;37.574;2022-11-15T08:47:01;99105.34;;;15.53;39.38
75447;BME280;64024;55.820;37.574;2022-11-15T08:49:26;99103.13;;;15.50;38.42
75447;BME280;64024;55.820;37.574;2022-11-15T08:51:52;99101.91;;;15.41;37.72
75447;BME280;64024;55.820;37.574;2022-11-15T08:54:17;99098.75;;;15.27;37.14
75447;BME280;64024;55.820;37.574;2022-11-15T08:56:45;99079.25;;;15.15;36.84
75447;BME280;64024;55.820;37.574;2022-11-15T08:59:11;99073.00;;;15.09;37.42
75447;BME280;64024;55.820;37.574;2022-11-15T09:01:36;99075.78;;;15.14;37.67
75447;BME280;64024;55.820;37.574;2022-11-15T09:04:02;99070.25;;;15.21;37.41
75447;BME280;64024;55.820;37.574;2022-11-15T09:06:29;99066.16;;;15.30;37.95
75447;BME280;64024;55.820;37.574;2022-11-15T09:09:06;99066.56;;;15.39;37.50
75447;BME280;64024;55.820;37.574;2022-11-15T09:11:31;99065.31;;;15.47;37.88
75447;BME280;64024;55.820;37.574;2022-11-15T09:13:59;99056.56;;;15.51;37.68
75447;BME280;64024;55.820;37.574;2022-11-15T09:16:25;99062.53;;;15.58;37.47
75447;BME280;64024;55.820;37.574;2022-11-15T09:18:50;99059.38;;;15.61;37.70
75447;BME280;64024;55.820;37.574;2022-11-15T09:21:17;99051.72;;;15.65;37.67
75447;BME280;64024;55.820;37.574;2022-11-15T09:23:42;99052.03;;;15.69;37.65
75447;BME280;64024;55.820;37.574;2022-11-15T09:26:08;99048.03;;;15.71;37.57
75447;BME280;64024;55.820;37.574;2022-11-15T09:28:34;99044.06;;;15.74;37.73
75447;BME280;64024;55.820;37.574;2022-11-15T09:31:04;99043.56;;;15.77;37.59
75447;BME280;64024;55.820;37.574;2022-11-15T09:33:32;99037.97;;;15.78;37.85
75447;BME280;64024;55.820;37.574;2022-11-15T09:36:05;99036.41;;;15.82;37.82
75447;BME280;64024;55.820;37.574;2022-11-15T09:38:34;99038.81;;;15.84;37.75
75447;BME280;64024;55.820;37.574;2022-11-15T09:47:03;99046.00;;;16.00;37.93
75447;BME280;64024;55.820;37.574;2022-11-15T09:49:33;99039.38;;;16.03;38.05
75447;BME280;64024;55.820;37.574;2022-11-15T09:51:59;99036.19;;;16.06;38.18
75447;BME280;64024;55.820;37.574;2022-11-15T09:54:34;99044.78;;;16.08;38.10
75447;BME280;64024;55.820;37.574;2022-11-15T09:57:09;99041.03;;;16.09;38.25
75447;BME280;64024;55.820;37.574;2022-11-15T10:05:20;99052.66;;;16.14;38.46
75447;BME280;64024;55.820;37.574;2022-11-15T10:11:01;99040.31;;;16.13;38.85
75447;BME280;64024;55.820;37.574;2022-11-15T10:13:36;99015.88;;;16.10;39.04
75447;BME280;64024;55.820;37.574;2022-11-15T10:18:55;99000.22;;;16.02;38.90
75447;BME280;64024;55.820;37.574;2022-11-15T10:21:32;99002.25;;;15.95;38.66
75447;BME280;64024;55.820;37.574;2022-11-15T10:24:09;98994.91;;;15.85;38.79
75447;BME280;64024;55.820;37.574;2022-11-15T10:26:35;98985.16;;;15.79;38.97
75447;BME280;64024;55.820;37.574;2022-11-15T10:29:01;98982.91;;;15.71;39.04
75447;BME280;64024;55.820;37.574;2022-11-15T10:31:28;98985.75;;;15.64;39.02
75447;BME280;64024;55.820;37.574;2022-11-15T10:34:17;98986.75;;;15.58;39.17
75447;BME280;64024;55.820;37.574;2022-11-15T10:39:20;98975.00;;;15.42;39.02
75447;BME280;64024;55.820;37.574;2022-11-15T10:41:45;98980.53;;;15.35;39.12
75447;BME280;64024;55.820;37.574;2022-11-15T10:49:24;98966.38;;;15.18;39.44
75447;BME280;64024;55.820;37.574;2022-11-15T10:51:57;98969.75;;;15.13;39.42
75447;BME280;64024;55.820;37.574;2022-11-15T10:54:43;98962.22;;;15.10;39.43
75447;BME280;64024;55.820;37.574;2022-11-15T10:57:21;98960.28;;;15.06;39.95
75447;BME280;64024;55.820;37.574;2022-11-15T10:59:56;98954.81;;;15.01;40.77
75447;BME280;64024;55.820;37.574;2022-11-15T11:02:35;98949.19;;;14.97;41.31
75447;BME280;64024;55.820;37.574;2022-11-15T11:05:04;98946.97;;;14.94;41.74
75447;BME280;64024;55.820;37.574;2022-11-15T11:07:34;98943.38;;;14.88;42.00
75447;BME280;64024;55.820;37.574;2022-11-15T11:12:33;98939.03;;;14.82;42.09
75447;BME280;64024;55.820;37.574;2022-11-15T11:15:10;98934.16;;;14.79;42.91
75447;BME280;64024;55.820;37.574;2022-11-15T11:18:10;98933.34;;;14.79;43.09
75447;BME280;64024;55.820;37.574;2022-11-15T11:20:45;98937.56;;;14.75;43.20
75447;BME280;64024;55.820;37.574;2022-11-15T11:23:49;98937.00;;;14.73;43.28
75447;BME280;64024;55.820;37.574;2022-11-15T11:37:04;98915.50;;;14.67;43.71
75447;BME280;64024;55.820;37.574;2022-11-15T11:42:52;98908.38;;;14.56;43.52
75447;BME280;64024;55.820;37.574;2022-11-15T11:45:10;98913.16;;;14.54;43.85
75447;BME280;64024;55.820;37.574;2022-11-15T11:47:47;98909.34;;;14.50;43.54
75447;BME280;64024;55.820;37.574;2022-11-15T11:50:23;98910.63;;;14.48;44.08
75447;BME280;64024;55.820;37.574;2022-11-15T11:55:33;98904.44;;;14.47;44.38
75447;BME280;64024;55.820;37.574;2022-11-15T11:58:33;98908.53;;;14.50;45.08
75447;BME280;64024;55.820;37.574;2022-11-15T12:01:22;98903.75;;;14.52;44.99
75447;BME280;64024;55.820;37.574;2022-11-15T12:04:04;98898.97;;;14.54;44.98
75447;BME280;64024;55.820;37.574;2022-11-15T12:06:41;98895.22;;;14.55;44.99
75447;BME280;64024;55.820;37.574;2022-11-15T12:09:28;98900.09;;;14.58;45.18
75447;BME280;64024;55.820;37.574;2022-11-15T12:12:05;98895.22;;;14.55;44.41
75447;BME280;64024;55.820;37.574;2022-11-15T12:17:12;98890.03;;;14.48;44.75
75447;BME280;64024;55.820;37.574;2022-11-15T12:19:41;98882.16;;;14.41;44.46
75447;BME280;64024;55.820;37.574;2022-11-15T12:22:20;98879.16;;;14.38;44.42
75447;BME280;64024;55.820;37.574;2022-11-15T12:25:02;98887.88;;;14.33;44.54
75447;BME280;64024;55.820;37.574;2022-11-15T12:27:32;98875.50;;;14.27;44.43
75447;BME280;64024;55.820;37.574;2022-11-15T12:30:07;98868.44;;;14.21;44.51
75447;BME280;64024;55.820;37.574;2022-11-15T12:32:37;98872.88;;;14.15;44.67
75447;BME280;64024;55.820;37.574;2022-11-15T12:35:06;98874.41;;;14.11;44.37
75447;BME280;64024;55.820;37.574;2022-11-15T12:37:50;98880.47;;;14.07;44.56
75447;BME280;64024;55.820;37.574;2022-11-15T12:40:20;98874.00;;;14.03;44.73
75447;BME280;64024;55.820;37.574;2022-11-15T12:45:38;98865.31;;;13.96;44.58
75447;BME280;64024;55.820;37.574;2022-11-15T12:58:57;98850.03;;;14.08;46.26
75447;BME280;64024;55.820;37.574;2022-11-15T13:07:03;98837.28;;;14.27;46.02
75447;BME280;64024;55.820;37.574;2022-11-15T13:11:58;98823.72;;;14.33;45.99
75447;BME280;64024;55.820;37.574;2022-11-15T13:17:17;98815.25;;;14.53;47.41
75447;BME280;64024;55.820;37.574;2022-11-15T13:22:40;98812.91;;;14.74;47.34
75447;BME280;64024;55.820;37.574;2022-11-15T13:28:18;98803.41;;;14.83;47.37
75447;BME280;64024;55.820;37.574;2022-11-15T13:30:51;98799.44;;;14.85;47.33
75447;BME280;64024;55.820;37.574;2022-11-15T13:33:36;98801.59;;;14.88;47.15
75447;BME280;64024;55.820;37.574;2022-11-15T13:36:14;98797.94;;;14.95;47.61
75447;BME280;64024;55.820;37.574;2022-11-15T13:38:41;98790.22;;;14.98;47.29
75447;BME280;64024;55.820;37.574;2022-11-15T13:41:17;98788.41;;;15.04;47.55
75447;BME280;64024;55.820;37.574;2022-11-15T13:43:43;98790.34;;;15.08;47.57
75447;BME280;64024;55.820;37.574;2022-11-15T13:46:26;98782.38;;;15.13;47.83
75447;BME280;64024;55.820;37.574;2022-11-15T13:56:37;98777.03;;;15.13;46.36
75447;BME280;64024;55.820;37.574;2022-11-15T13:59:16;98776.97;;;15.08;46.20
75447;BME280;64024;55.820;37.574;2022-11-15T14:01:43;98780.66;;;15.02;46.14
75447;BME280;64024;55.820;37.574;2022-11-15T14:04:11;98776.53;;;14.95;46.09
75447;BME280;64024;55.820;37.574;2022-11-15T14:06:45;98780.19;;;14.88;46.13
75447;BME280;64024;55.820;37.574;2022-11-15T14:09:36;98778.78;;;14.81;46.45
75447;BME280;64024;55.820;37.574;2022-11-15T14:14:52;98775.63;;;14.67;46.39
75447;BME280;64024;55.820;37.574;2022-11-15T14:17:34;98770.69;;;14.59;47.09
75447;BME280;64024;55.820;37.574;2022-11-15T14:20:00;98771.69;;;14.53;46.68
75447;BME280;64024;55.820;37.574;2022-11-15T14:22:30;98764.38;;;14.48;46.95
75447;BME280;64024;55.820;37.574;2022-11-15T14:27:42;98759.75;;;14.43;47.57
75447;BME280;64024;55.820;37.574;2022-11-15T14:30:17;98746.06;;;14.40;47.69
75447;BME280;64024;55.820;37.574;2022-11-15T14:32:47;98760.72;;;14.37;48.02
75447;BME280;64024;55.820;37.574;2022-11-15T14:35:17;98758.53;;;14.34;47.99
75447;BME280;64024;55.820;37.574;2022-11-15T14:37:44;98759.59;;;14.33;48.04
75447;BME280;64024;55.820;37.574;2022-11-15T14:40:14;98758.22;;;14.31;48.32
75447;BME280;64024;55.820;37.574;2022-11-15T14:42:39;98751.50;;;14.28;49.02
75447;BME280;64024;55.820;37.574;2022-11-15T14:45:16;98743.72;;;14.27;49.12
75447;BME280;64024;55.820;37.574;2022-11-15T14:47:42;98745.81;;;14.25;48.87
75447;BME280;64024;55.820;37.574;2022-11-15T14:50:12;98734.56;;;14.23;49.17
75447;BME280;64024;55.820;37.574;2022-11-15T14:52:38;98737.72;;;14.20;48.86
75447;BME280;64024;55.820;37.574;2022-11-15T14:57:40;98732.53;;;14.13;48.93
75447;BME280;64024;55.820;37.574;2022-11-15T15:00:06;98727.66;;;14.10;48.83
75447;BME280;64024;55.820;37.574;2022-11-15T15:02:31;98747.63;;;14.02;48.46
75447;BME280;64024;55.820;37.574;2022-11-15T15:04:57;98721.50;;;13.76;47.71
75447;BME280;64024;55.820;37.574;2022-11-15T15:07:26;98722.88;;;13.61;48.98
75447;BME280;64024;55.820;37.574;2022-11-15T15:09:54;98717.53;;;13.61;49.38